Airport View

Enter AWOS ICAO identifier for current METAR.

ex. KFNL

KSUA 170930Z AUTO 32007KT BKN010 OVC017 12/10 A2989 RMK AO2 PWINO

17 Nov 2019 09:32

Phone: 772-692-7399

Other Area AWOS: KFPR - KVRB - KPBI - KOBE

TAF AMD KSUA 170847Z 1709/1806 30011KT P6SM BKN009 OVC012 FM171600 33012G18KT P6SM SCT015 BKN025 FM172100 33011KT P6SM SCT030 BKN050 FM180100 32007KT P6SM SCT020 SCT250